Item Display Status Serial CT Sensor

Mooring Depth: 1 m

 

Deployed Sensor

  • Serial Number: 12432
  • NDBC Property Number: 38898
  • Start Date: 1/25/2017 (10:15:46 Z)
  • End Date: 4/17/2018 (00:20:00 Z)
Water Temperature [°C]     6 entries per hour
Showing data from 10/18/2017 (23:00:00 Z) to 10/17/2017 (00:00:01 Z)
Previous Next [ Day | 3-Days | 7-Days ]
First Last
Prev [ Day | 3-Days | 7-Days ] Next
First Last

Start Time:     :
End Time:     :     
Time (in GMT) :00 :50 :40 :30 :20 :10
Previous Next [ Day | 3-Days | 7-Days ]
First Last
Prev [ Day | 3-Days | 7-Days ] Next
First Last


123 => good data
MM => data is determined as missing
-- => data not received/configured
Back to Top Back to Top
10/18/2017 23:00 to 22:10 27.496 27.498 27.491 27.490 27.488 27.492
10/18/2017 22:00 to 21:10 27.498 27.498 27.495 27.490 27.486 27.492
10/18/2017 21:00 to 20:10 27.464 27.457 27.447 27.445 27.445 27.476
10/18/2017 20:00 to 19:10 27.441 27.439 27.439 27.440 27.435 27.442
10/18/2017 19:00 to 18:10 27.448 27.444 27.452 27.457 27.464 27.438
10/18/2017 18:00 to 17:10 27.474 27.470 27.486 27.485 27.462 27.455
10/18/2017 17:00 to 16:10 27.451 27.466 27.449 27.458 27.457 27.460
10/18/2017 16:00 to 15:10 27.443 27.440 27.439 27.435 27.434 27.454
10/18/2017 15:00 to 14:10 -- -- 27.428 27.431 27.432 27.436
10/18/2017 14:00 to 13:10 27.417 27.426 27.425 27.430 27.431 27.426
10/18/2017 13:00 to 12:10 27.428 27.424 27.427 27.423 27.433 27.422
10/18/2017 12:00 to 11:10 27.428 27.424 27.426 27.432 27.431 27.427
10/18/2017 11:00 to 10:10 27.432 27.439 27.437 27.437 27.438 27.429
10/18/2017 10:00 to 9:10 27.441 27.444 27.441 27.440 27.437 27.426
10/18/2017 09:00 to 8:10 27.440 27.444 27.435 27.441 27.443 27.442
10/18/2017 08:00 to 7:10 27.434 27.441 27.445 27.445 27.452 27.440
10/18/2017 07:00 to 6:10 27.453 27.454 27.453 27.443 27.455 27.452
10/18/2017 06:00 to 5:10 27.459 27.456 27.463 27.463 27.462 27.451
10/18/2017 05:00 to 4:10 27.463 27.466 27.467 27.467 27.465 27.461
10/18/2017 04:00 to 3:10 27.461 27.471 27.470 27.470 27.470 27.473
10/18/2017 03:00 to 2:10 27.471 27.461 27.471 27.468 27.468 27.470
10/18/2017 02:00 to 1:10 27.471 27.471 27.463 27.468 27.465 27.475
10/18/2017 01:00 to 0:10 27.474 27.472 27.478 27.467 27.477 27.474
10/18/2017 00:00 to 23:10 27.480 27.484 27.475 27.479 27.479 27.479
10/17/2017 23:00 to 22:10 27.487 27.484 27.482 27.482 27.490 27.481
10/17/2017 22:00 to 21:10 27.491 27.489 27.492 27.487 27.485 27.485
10/17/2017 21:00 to 20:10 27.485 27.482 27.476 27.479 27.472 27.489
10/17/2017 20:00 to 19:10 27.470 27.468 27.469 27.470 27.471 27.472
10/17/2017 19:00 to 18:10 27.470 27.473 27.463 27.478 27.480 27.474
10/17/2017 18:00 to 17:10 27.481 27.478 27.474 27.469 27.460 27.482
10/17/2017 17:00 to 16:10 -- -- -- -- -- --
10/17/2017 16:00 to 15:10 27.436 27.430 27.432 27.436 27.429 27.437
10/17/2017 15:00 to 14:10 -- -- -- -- -- --
10/17/2017 14:00 to 13:10 27.430 27.440 27.437 27.437 27.441 27.428
10/17/2017 13:00 to 12:10 27.449 27.448 27.447 27.435 27.426 27.444
10/17/2017 12:00 to 11:10 27.444 27.447 27.441 27.447 27.444 27.443
10/17/2017 11:00 to 10:10 27.449 27.449 27.437 27.446 27.451 27.437
10/17/2017 10:00 to 9:10 27.452 27.460 27.449 27.454 27.465 27.455
10/17/2017 09:00 to 8:10 27.464 27.463 27.470 27.460 27.473 27.459
10/17/2017 08:00 to 7:10 27.475 27.486 27.489 27.485 27.486 27.477
10/17/2017 07:00 to 6:10 27.477 27.477 27.487 27.483 27.480 27.490
10/17/2017 06:00 to 5:10 27.488 27.487 27.485 27.481 27.477 27.486
10/17/2017 05:00 to 4:10 27.473 27.476 27.476 27.483 27.472 27.473
10/17/2017 04:00 to 3:10 27.463 27.473 27.460 27.470 27.464 27.477
10/17/2017 03:00 to 2:10 27.465 27.474 27.482 27.483 27.482 27.474
10/17/2017 02:00 to 1:10 27.488 27.485 27.485 27.496 27.494 27.485
10/17/2017 01:00 to 0:10 27.474 27.473 27.475 27.478 27.464 27.478

 

 

 

Conductivity [S/m]     6 entries per hour
Showing data from 10/18/2017 (23:00:00 Z) to 10/17/2017 (00:00:01 Z)
Previous Next [ Day | 3-Days | 7-Days ]
First Last
Prev [ Day | 3-Days | 7-Days ] Next
First Last

Start Time:     :
End Time:     :     
Time (in GMT) :00 :50 :40 :30 :20 :10
Previous Next [ Day | 3-Days | 7-Days ]
First Last
Prev [ Day | 3-Days | 7-Days ] Next
First Last


123 => good data
MM => data is determined as missing
-- => data not received/configured
Back to Top Back to Top
10/18/2017 23:00 to 22:10 5.31073 5.31099 5.30988 5.30984 5.30955 5.31039
10/18/2017 22:00 to 21:10 5.31056 5.31064 5.31014 5.30945 5.30912 5.31006
10/18/2017 21:00 to 20:10 5.30663 5.30575 5.30447 5.30440 5.30427 5.30781
10/18/2017 20:00 to 19:10 5.30399 5.30353 5.30355 5.30371 5.30331 5.30406
10/18/2017 19:00 to 18:10 5.30444 5.30426 5.30524 5.30593 5.30682 5.30325
10/18/2017 18:00 to 17:10 5.30790 5.30742 5.30944 5.30913 5.30698 5.30599
10/18/2017 17:00 to 16:10 5.30637 5.30775 5.30602 5.30716 5.30741 5.30701
10/18/2017 16:00 to 15:10 5.30633 5.30615 5.30625 5.30610 5.30603 5.30734
10/18/2017 15:00 to 14:10 5.30522 5.30558 5.30535 5.30553 5.30580 5.30615
10/18/2017 14:00 to 13:10 5.30449 5.30516 5.30525 5.30549 5.30575 5.30527
10/18/2017 13:00 to 12:10 5.30535 5.30492 5.30511 5.30476 5.30563 5.30495
10/18/2017 12:00 to 11:10 5.30505 5.30466 5.30487 5.30560 5.30545 5.30510
10/18/2017 11:00 to 10:10 5.30575 5.30646 5.30617 5.30598 5.30628 5.30535
10/18/2017 10:00 to 9:10 5.30661 5.30690 5.30663 5.30633 5.30609 5.30517
10/18/2017 09:00 to 8:10 5.30654 5.30696 5.30602 5.30666 5.30680 5.30663
10/18/2017 08:00 to 7:10 5.30597 5.30673 5.30723 5.30720 5.30800 5.30669
10/18/2017 07:00 to 6:10 5.30811 5.30799 5.30790 5.30712 5.30815 5.30796
10/18/2017 06:00 to 5:10 5.30874 5.30850 5.30911 5.30920 5.30909 5.30805
10/18/2017 05:00 to 4:10 5.30905 5.30935 5.30958 5.30948 5.30931 5.30877
10/18/2017 04:00 to 3:10 5.30896 5.30999 5.30983 5.30995 5.30978 5.31003
10/18/2017 03:00 to 2:10 5.30988 5.30887 5.30981 5.30922 5.30938 5.30962
10/18/2017 02:00 to 1:10 5.30970 5.30972 5.30869 5.30925 5.30909 5.31002
10/18/2017 01:00 to 0:10 5.30975 5.30959 5.31013 5.30897 5.31008 5.30992
10/18/2017 00:00 to 23:10 5.31019 5.31025 5.30940 5.30987 5.30970 5.31019
10/17/2017 23:00 to 22:10 5.31064 5.31030 5.31015 5.31010 5.31024 5.31006
10/17/2017 22:00 to 21:10 5.31083 5.31080 5.31085 5.31054 5.31019 5.31046
10/17/2017 21:00 to 20:10 5.31017 5.30970 5.30923 5.30934 5.30846 5.31056
10/17/2017 20:00 to 19:10 5.30822 5.30799 5.30815 5.30826 5.30811 5.30850
10/17/2017 19:00 to 18:10 5.30823 5.30827 5.30652 5.30878 5.30901 5.30879
10/17/2017 18:00 to 17:10 5.30913 5.30887 5.30849 5.30743 5.30655 5.30909
10/17/2017 17:00 to 16:10 -- -- -- -- -- --
10/17/2017 16:00 to 15:10 5.30458 5.30359 5.30354 5.30427 5.30397 5.30432
10/17/2017 15:00 to 14:10 -- -- -- -- -- --
10/17/2017 14:00 to 13:10 5.30400 5.30506 5.30461 5.30483 5.30489 5.30398
10/17/2017 13:00 to 12:10 5.30619 5.30631 5.30593 5.30506 5.30431 5.30545
10/17/2017 12:00 to 11:10 5.30591 5.30625 5.30578 5.30641 5.30621 5.30597
10/17/2017 11:00 to 10:10 5.30660 5.30689 5.30574 5.30676 5.30730 5.30575
10/17/2017 10:00 to 9:10 5.30808 5.30880 5.30779 5.30824 5.30959 5.30793
10/17/2017 09:00 to 8:10 5.30958 5.31022 5.31071 5.31019 5.31172 5.30926
10/17/2017 08:00 to 7:10 5.31221 5.31331 5.31379 5.31341 5.31362 5.31198
10/17/2017 07:00 to 6:10 5.31311 5.31309 5.31404 5.31318 5.31323 5.31413
10/17/2017 06:00 to 5:10 5.31400 5.31409 5.31397 5.31354 5.31298 5.31396
10/17/2017 05:00 to 4:10 5.31262 5.31280 5.31283 5.31336 5.31249 5.31281
10/17/2017 04:00 to 3:10 5.31149 5.31224 5.31107 5.31198 5.31162 5.31276
10/17/2017 03:00 to 2:10 5.31194 5.31252 5.31346 5.31344 5.31318 5.31245
10/17/2017 02:00 to 1:10 5.31385 5.31353 5.31353 5.31446 5.31419 5.31345
10/17/2017 01:00 to 0:10 5.31226 5.31227 5.31252 5.31282 5.31126 5.31274

 

 

 

Salinity [psu]     6 entries per hour
Showing data from 10/18/2017 (23:00:00 Z) to 10/17/2017 (00:00:01 Z)
Previous Next [ Day | 3-Days | 7-Days ]
First Last
Prev [ Day | 3-Days | 7-Days ] Next
First Last

Start Time:     :
End Time:     :     
Time (in GMT) :00 :50 :40 :30 :20 :10
Previous Next [ Day | 3-Days | 7-Days ]
First Last
Prev [ Day | 3-Days | 7-Days ] Next
First Last


123 => good data
MM => data is determined as missing
-- => data not received/configured
Back to Top Back to Top
10/18/2017 23:00 to 22:10 33.18 33.18 33.17 33.17 33.17 33.18
10/18/2017 22:00 to 21:10 33.17 33.17 33.17 33.17 33.17 33.17
10/18/2017 21:00 to 20:10 33.17 33.17 33.17 33.17 33.17 33.17
10/18/2017 20:00 to 19:10 33.17 33.17 33.17 33.17 33.17 33.17
10/18/2017 19:00 to 18:10 33.17 33.17 33.17 33.17 33.17 33.16
10/18/2017 18:00 to 17:10 33.17 33.17 33.17 33.17 33.17 33.17
10/18/2017 17:00 to 16:10 33.18 33.18 33.18 33.18 33.18 33.18
10/18/2017 16:00 to 15:10 33.18 33.18 33.19 33.19 33.19 33.18
10/18/2017 15:00 to 14:10 -- -- 33.19 33.19 33.19 33.19
10/18/2017 14:00 to 13:10 33.19 33.19 33.19 33.19 33.19 33.19
10/18/2017 13:00 to 12:10 33.19 33.19 33.19 33.19 33.19 33.19
10/18/2017 12:00 to 11:10 33.18 33.18 33.18 33.19 33.19 33.19
10/18/2017 11:00 to 10:10 33.19 33.19 33.19 33.18 33.19 33.19
10/18/2017 10:00 to 9:10 33.19 33.19 33.19 33.19 33.19 33.19
10/18/2017 09:00 to 8:10 33.19 33.19 33.19 33.19 33.19 33.19
10/18/2017 08:00 to 7:10 33.19 33.19 33.19 33.19 33.19 33.19
10/18/2017 07:00 to 6:10 33.19 33.19 33.19 33.19 33.19 33.19
10/18/2017 06:00 to 5:10 33.19 33.19 33.19 33.19 33.19 33.19
10/18/2017 05:00 to 4:10 33.19 33.19 33.19 33.19 33.19 33.19
10/18/2017 04:00 to 3:10 33.19 33.19 33.19 33.19 33.19 33.19
10/18/2017 03:00 to 2:10 33.19 33.19 33.19 33.19 33.19 33.19
10/18/2017 02:00 to 1:10 33.19 33.19 33.19 33.19 33.19 33.19
10/18/2017 01:00 to 0:10 33.18 33.19 33.18 33.18 33.19 33.19
10/18/2017 00:00 to 23:10 33.18 33.18 33.18 33.18 33.18 33.18
10/17/2017 23:00 to 22:10 33.18 33.18 33.18 33.18 33.18 33.18
10/17/2017 22:00 to 21:10 33.18 33.18 33.18 33.18 33.18 33.18
10/17/2017 21:00 to 20:10 33.18 33.18 33.18 33.18 33.18 33.18
10/17/2017 20:00 to 19:10 33.18 33.18 33.18 33.18 33.18 33.18
10/17/2017 19:00 to 18:10 33.18 33.18 33.17 33.18 33.18 33.18
10/17/2017 18:00 to 17:10 33.18 33.18 33.18 33.17 33.17 33.17
10/17/2017 17:00 to 16:10 -- -- -- -- -- --
10/17/2017 16:00 to 15:10 33.18 33.17 33.17 33.17 33.18 33.17
10/17/2017 15:00 to 14:10 -- -- -- -- -- --
10/17/2017 14:00 to 13:10 33.18 33.18 33.18 33.18 33.17 33.18
10/17/2017 13:00 to 12:10 33.18 33.18 33.18 33.18 33.18 33.18
10/17/2017 12:00 to 11:10 33.18 33.18 33.18 33.18 33.18 33.18
10/17/2017 11:00 to 10:10 33.18 33.18 33.18 33.18 33.18 33.18
10/17/2017 10:00 to 9:10 33.19 33.19 33.19 33.19 33.19 33.19
10/17/2017 09:00 to 8:10 33.19 33.20 33.19 33.20 33.20 33.19
10/17/2017 08:00 to 7:10 33.20 33.20 33.20 33.20 33.20 33.20
10/17/2017 07:00 to 6:10 33.21 33.21 33.21 33.20 33.21 33.20
10/17/2017 06:00 to 5:10 33.21 33.21 33.21 33.21 33.21 33.21
10/17/2017 05:00 to 4:10 33.21 33.20 33.21 33.20 33.21 33.21
10/17/2017 04:00 to 3:10 33.20 33.20 33.20 33.20 33.21 33.20
10/17/2017 03:00 to 2:10 33.21 33.20 33.21 33.20 33.20 33.20
10/17/2017 02:00 to 1:10 33.20 33.20 33.20 33.20 33.20 33.20
10/17/2017 01:00 to 0:10 33.20 33.20 33.20 33.20 33.20 33.20